sensor_id;sensor_type;location;lat;lon;timestamp;P1;durP1;ratioP1;P2;durP2;ratioP2
13607;SDS011;6875;50.852;5.672;2023-03-12T00:01:37;9.27;;;5.00;;
13607;SDS011;6875;50.852;5.672;2023-03-12T00:04:05;10.23;;;4.67;;
13607;SDS011;6875;50.852;5.672;2023-03-12T00:06:32;8.93;;;4.77;;
13607;SDS011;6875;50.852;5.672;2023-03-12T00:08:58;8.17;;;4.30;;
13607;SDS011;6875;50.852;5.672;2023-03-12T00:11:26;12.60;;;4.90;;
13607;SDS011;6875;50.852;5.672;2023-03-12T00:13:54;7.10;;;4.53;;
13607;SDS011;6875;50.852;5.672;2023-03-12T00:16:21;8.70;;;5.00;;
13607;SDS011;6875;50.852;5.672;2023-03-12T00:18:49;7.33;;;4.80;;
13607;SDS011;6875;50.852;5.672;2023-03-12T00:21:17;9.20;;;4.63;;
13607;SDS011;6875;50.852;5.672;2023-03-12T00:23:45;6.77;;;4.63;;
13607;SDS011;6875;50.852;5.672;2023-03-12T00:26:12;6.30;;;4.50;;
13607;SDS011;6875;50.852;5.672;2023-03-12T00:28:40;8.77;;;4.70;;
13607;SDS011;6875;50.852;5.672;2023-03-12T00:31:12;13.17;;;4.17;;
13607;SDS011;6875;50.852;5.672;2023-03-12T00:33:40;8.17;;;4.37;;
13607;SDS011;6875;50.852;5.672;2023-03-12T00:36:07;7.80;;;4.03;;
13607;SDS011;6875;50.852;5.672;2023-03-12T00:38:35;6.70;;;3.80;;
13607;SDS011;6875;50.852;5.672;2023-03-12T00:41:01;6.83;;;3.90;;
13607;SDS011;6875;50.852;5.672;2023-03-12T00:43:28;6.27;;;3.67;;
13607;SDS011;6875;50.852;5.672;2023-03-12T00:45:55;7.23;;;3.90;;
13607;SDS011;6875;50.852;5.672;2023-03-12T00:48:21;7.77;;;3.90;;
13607;SDS011;6875;50.852;5.672;2023-03-12T00:50:48;7.47;;;3.77;;
13607;SDS011;6875;50.852;5.672;2023-03-12T00:53:14;9.83;;;4.00;;
13607;SDS011;6875;50.852;5.672;2023-03-12T00:55:42;6.13;;;4.00;;
13607;SDS011;6875;50.852;5.672;2023-03-12T00:58:09;9.20;;;3.60;;
13607;SDS011;6875;50.852;5.672;2023-03-12T01:00:35;6.67;;;3.73;;
13607;SDS011;6875;50.852;5.672;2023-03-12T01:03:02;7.07;;;3.40;;
13607;SDS011;6875;50.852;5.672;2023-03-12T01:05:28;5.93;;;3.60;;
13607;SDS011;6875;50.852;5.672;2023-03-12T01:07:56;10.27;;;4.00;;
13607;SDS011;6875;50.852;5.672;2023-03-12T01:10:22;6.57;;;3.93;;
13607;SDS011;6875;50.852;5.672;2023-03-12T01:12:50;6.80;;;3.83;;
13607;SDS011;6875;50.852;5.672;2023-03-12T01:15:17;7.00;;;3.47;;
13607;SDS011;6875;50.852;5.672;2023-03-12T01:17:44;5.97;;;3.70;;
13607;SDS011;6875;50.852;5.672;2023-03-12T01:20:11;7.83;;;4.10;;
13607;SDS011;6875;50.852;5.672;2023-03-12T01:22:37;7.10;;;4.07;;
13607;SDS011;6875;50.852;5.672;2023-03-12T01:25:04;5.37;;;3.80;;
13607;SDS011;6875;50.852;5.672;2023-03-12T01:27:31;10.47;;;4.00;;
13607;SDS011;6875;50.852;5.672;2023-03-12T01:29:59;8.27;;;4.30;;
13607;SDS011;6875;50.852;5.672;2023-03-12T01:32:26;8.23;;;4.03;;
13607;SDS011;6875;50.852;5.672;2023-03-12T01:34:52;10.97;;;4.07;;
13607;SDS011;6875;50.852;5.672;2023-03-12T01:37:19;9.50;;;3.83;;
13607;SDS011;6875;50.852;5.672;2023-03-12T01:39:45;6.77;;;3.87;;
13607;SDS011;6875;50.852;5.672;2023-03-12T01:42:12;5.77;;;3.80;;
13607;SDS011;6875;50.852;5.672;2023-03-12T01:44:49;8.23;;;4.13;;
13607;SDS011;6875;50.852;5.672;2023-03-12T01:47:20;8.00;;;3.97;;
13607;SDS011;6875;50.852;5.672;2023-03-12T01:49:46;6.57;;;3.80;;
13607;SDS011;6875;50.852;5.672;2023-03-12T01:52:14;7.17;;;3.63;;
13607;SDS011;6875;50.852;5.672;2023-03-12T01:54:43;10.73;;;4.40;;
13607;SDS011;6875;50.852;5.672;2023-03-12T01:57:12;5.90;;;3.97;;
13607;SDS011;6875;50.852;5.672;2023-03-12T01:59:41;10.20;;;3.90;;
13607;SDS011;6875;50.852;5.672;2023-03-12T02:02:10;10.03;;;4.63;;
13607;SDS011;6875;50.852;5.672;2023-03-12T02:04:38;9.37;;;3.37;;
13607;SDS011;6875;50.852;5.672;2023-03-12T02:07:07;6.27;;;3.67;;
13607;SDS011;6875;50.852;5.672;2023-03-12T02:09:35;8.77;;;4.23;;
13607;SDS011;6875;50.852;5.672;2023-03-12T02:12:03;6.23;;;3.83;;
13607;SDS011;6875;50.852;5.672;2023-03-12T02:14:30;9.33;;;4.00;;
13607;SDS011;6875;50.852;5.672;2023-03-12T02:16:57;6.30;;;3.80;;
13607;SDS011;6875;50.852;5.672;2023-03-12T02:19:26;6.97;;;3.83;;
13607;SDS011;6875;50.852;5.672;2023-03-12T02:21:58;7.93;;;3.33;;
13607;SDS011;6875;50.852;5.672;2023-03-12T02:24:27;8.00;;;3.67;;
13607;SDS011;6875;50.852;5.672;2023-03-12T02:26:59;6.90;;;3.43;;
13607;SDS011;6875;50.852;5.672;2023-03-12T02:29:26;5.93;;;3.70;;
13607;SDS011;6875;50.852;5.672;2023-03-12T02:31:54;4.60;;;3.33;;
13607;SDS011;6875;50.852;5.672;2023-03-12T02:34:22;5.87;;;3.10;;
13607;SDS011;6875;50.852;5.672;2023-03-12T02:36:48;9.90;;;3.80;;
13607;SDS011;6875;50.852;5.672;2023-03-12T02:39:15;9.13;;;3.70;;
13607;SDS011;6875;50.852;5.672;2023-03-12T02:41:42;6.67;;;3.87;;
13607;SDS011;6875;50.852;5.672;2023-03-12T02:44:12;5.93;;;3.67;;
13607;SDS011;6875;50.852;5.672;2023-03-12T02:46:42;6.93;;;4.43;;
13607;SDS011;6875;50.852;5.672;2023-03-12T02:49:10;5.80;;;3.40;;
13607;SDS011;6875;50.852;5.672;2023-03-12T02:51:37;6.27;;;3.43;;
13607;SDS011;6875;50.852;5.672;2023-03-12T02:54:04;4.53;;;3.43;;
13607;SDS011;6875;50.852;5.672;2023-03-12T02:56:31;6.63;;;3.47;;
13607;SDS011;6875;50.852;5.672;2023-03-12T02:58:57;5.53;;;3.20;;
13607;SDS011;6875;50.852;5.672;2023-03-12T03:01:25;6.50;;;3.43;;
13607;SDS011;6875;50.852;5.672;2023-03-12T03:03:52;6.53;;;3.77;;
13607;SDS011;6875;50.852;5.672;2023-03-12T03:06:19;6.20;;;3.80;;
13607;SDS011;6875;50.852;5.672;2023-03-12T03:08:46;6.13;;;3.70;;
13607;SDS011;6875;50.852;5.672;2023-03-12T03:11:13;5.20;;;3.33;;
13607;SDS011;6875;50.852;5.672;2023-03-12T03:13:39;5.23;;;3.40;;
13607;SDS011;6875;50.852;5.672;2023-03-12T03:16:06;7.80;;;4.30;;
13607;SDS011;6875;50.852;5.672;2023-03-12T03:18:34;5.63;;;3.83;;
13607;SDS011;6875;50.852;5.672;2023-03-12T03:21:01;6.03;;;3.73;;
13607;SDS011;6875;50.852;5.672;2023-03-12T03:23:30;8.47;;;4.67;;
13607;SDS011;6875;50.852;5.672;2023-03-12T03:25:57;7.23;;;3.90;;
13607;SDS011;6875;50.852;5.672;2023-03-12T03:28:25;4.63;;;3.77;;
13607;SDS011;6875;50.852;5.672;2023-03-12T03:30:53;5.70;;;3.40;;
13607;SDS011;6875;50.852;5.672;2023-03-12T03:33:22;7.70;;;4.30;;
13607;SDS011;6875;50.852;5.672;2023-03-12T03:35:50;9.33;;;3.70;;
13607;SDS011;6875;50.852;5.672;2023-03-12T03:38:19;7.80;;;3.83;;
13607;SDS011;6875;50.852;5.672;2023-03-12T03:40:46;8.00;;;3.93;;
13607;SDS011;6875;50.852;5.672;2023-03-12T03:43:12;4.50;;;3.60;;
13607;SDS011;6875;50.852;5.672;2023-03-12T03:45:39;7.70;;;4.17;;
13607;SDS011;6875;50.852;5.672;2023-03-12T03:48:08;8.47;;;3.43;;
13607;SDS011;6875;50.852;5.672;2023-03-12T03:50:35;4.60;;;3.40;;
13607;SDS011;6875;50.852;5.672;2023-03-12T03:53:03;13.07;;;4.23;;
13607;SDS011;6875;50.852;5.672;2023-03-12T03:55:30;10.90;;;3.70;;
13607;SDS011;6875;50.852;5.672;2023-03-12T03:57:57;8.83;;;4.10;;
13607;SDS011;6875;50.852;5.672;2023-03-12T04:00:23;9.73;;;4.53;;
13607;SDS011;6875;50.852;5.672;2023-03-12T04:02:50;4.93;;;3.67;;
13607;SDS011;6875;50.852;5.672;2023-03-12T04:05:16;7.67;;;3.57;;
13607;SDS011;6875;50.852;5.672;2023-03-12T04:07:44;12.23;;;4.23;;
13607;SDS011;6875;50.852;5.672;2023-03-12T04:10:13;9.40;;;3.57;;
13607;SDS011;6875;50.852;5.672;2023-03-12T04:12:39;7.53;;;4.20;;
13607;SDS011;6875;50.852;5.672;2023-03-12T04:15:06;10.77;;;3.63;;
13607;SDS011;6875;50.852;5.672;2023-03-12T04:17:33;5.07;;;3.43;;
13607;SDS011;6875;50.852;5.672;2023-03-12T04:20:00;9.97;;;4.30;;
13607;SDS011;6875;50.852;5.672;2023-03-12T04:22:26;6.50;;;3.47;;
13607;SDS011;6875;50.852;5.672;2023-03-12T04:24:53;4.80;;;3.47;;
13607;SDS011;6875;50.852;5.672;2023-03-12T04:27:21;7.00;;;4.00;;
13607;SDS011;6875;50.852;5.672;2023-03-12T04:29:47;4.67;;;3.23;;
13607;SDS011;6875;50.852;5.672;2023-03-12T04:32:14;4.33;;;3.00;;
13607;SDS011;6875;50.852;5.672;2023-03-12T04:34:41;6.33;;;3.07;;
13607;SDS011;6875;50.852;5.672;2023-03-12T04:37:07;8.37;;;3.30;;
13607;SDS011;6875;50.852;5.672;2023-03-12T04:39:35;5.77;;;3.10;;
13607;SDS011;6875;50.852;5.672;2023-03-12T04:42:02;6.97;;;3.07;;
13607;SDS011;6875;50.852;5.672;2023-03-12T04:44:30;6.17;;;3.07;;
13607;SDS011;6875;50.852;5.672;2023-03-12T04:46:56;9.63;;;3.17;;
13607;SDS011;6875;50.852;5.672;2023-03-12T04:49:23;9.17;;;3.80;;
13607;SDS011;6875;50.852;5.672;2023-03-12T04:51:49;7.93;;;3.00;;
13607;SDS011;6875;50.852;5.672;2023-03-12T04:54:16;11.40;;;3.70;;
13607;SDS011;6875;50.852;5.672;2023-03-12T04:56:45;7.37;;;3.30;;
13607;SDS011;6875;50.852;5.672;2023-03-12T04:59:11;7.07;;;3.03;;
13607;SDS011;6875;50.852;5.672;2023-03-12T05:01:39;4.67;;;3.20;;
13607;SDS011;6875;50.852;5.672;2023-03-12T05:04:06;7.50;;;3.50;;
13607;SDS011;6875;50.852;5.672;2023-03-12T05:06:33;11.47;;;4.10;;
13607;SDS011;6875;50.852;5.672;2023-03-12T05:09:00;5.57;;;3.63;;
13607;SDS011;6875;50.852;5.672;2023-03-12T05:11:26;8.93;;;3.67;;
13607;SDS011;6875;50.852;5.672;2023-03-12T05:13:53;9.07;;;3.97;;
13607;SDS011;6875;50.852;5.672;2023-03-12T05:16:19;7.03;;;3.30;;
13607;SDS011;6875;50.852;5.672;2023-03-12T05:18:47;8.07;;;3.53;;
13607;SDS011;6875;50.852;5.672;2023-03-12T05:21:15;7.40;;;3.60;;
13607;SDS011;6875;50.852;5.672;2023-03-12T05:23:43;5.53;;;3.53;;
13607;SDS011;6875;50.852;5.672;2023-03-12T05:26:14;7.10;;;3.97;;
13607;SDS011;6875;50.852;5.672;2023-03-12T05:28:42;7.17;;;3.93;;
13607;SDS011;6875;50.852;5.672;2023-03-12T05:31:09;10.57;;;3.83;;
13607;SDS011;6875;50.852;5.672;2023-03-12T05:33:36;5.23;;;3.43;;
13607;SDS011;6875;50.852;5.672;2023-03-12T05:36:05;7.37;;;3.93;;
13607;SDS011;6875;50.852;5.672;2023-03-12T05:38:32;7.60;;;4.27;;
13607;SDS011;6875;50.852;5.672;2023-03-12T05:40:59;10.63;;;4.00;;
13607;SDS011;6875;50.852;5.672;2023-03-12T05:43:26;12.20;;;3.90;;
13607;SDS011;6875;50.852;5.672;2023-03-12T05:45:53;7.20;;;4.20;;
13607;SDS011;6875;50.852;5.672;2023-03-12T05:48:23;10.83;;;4.43;;
13607;SDS011;6875;50.852;5.672;2023-03-12T05:50:49;9.60;;;4.40;;
13607;SDS011;6875;50.852;5.672;2023-03-12T05:53:17;10.97;;;4.80;;
13607;SDS011;6875;50.852;5.672;2023-03-12T05:55:44;11.17;;;4.87;;
13607;SDS011;6875;50.852;5.672;2023-03-12T05:58:10;8.53;;;4.60;;
13607;SDS011;6875;50.852;5.672;2023-03-12T06:00:41;8.37;;;4.60;;
13607;SDS011;6875;50.852;5.672;2023-03-12T06:03:08;10.57;;;4.40;;
13607;SDS011;6875;50.852;5.672;2023-03-12T06:05:35;10.37;;;5.10;;
13607;SDS011;6875;50.852;5.672;2023-03-12T06:08:02;9.20;;;4.43;;
13607;SDS011;6875;50.852;5.672;2023-03-12T06:10:30;12.37;;;4.77;;
13607;SDS011;6875;50.852;5.672;2023-03-12T06:12:57;12.10;;;4.57;;
13607;SDS011;6875;50.852;5.672;2023-03-12T06:15:24;8.77;;;4.83;;
13607;SDS011;6875;50.852;5.672;2023-03-12T06:17:50;8.53;;;4.90;;
13607;SDS011;6875;50.852;5.672;2023-03-12T06:20:17;11.20;;;4.70;;
13607;SDS011;6875;50.852;5.672;2023-03-12T06:22:44;9.27;;;4.97;;
13607;SDS011;6875;50.852;5.672;2023-03-12T06:25:10;9.80;;;5.03;;
13607;SDS011;6875;50.852;5.672;2023-03-12T06:27:38;9.30;;;5.00;;
13607;SDS011;6875;50.852;5.672;2023-03-12T06:30:05;11.60;;;5.47;;
13607;SDS011;6875;50.852;5.672;2023-03-12T06:32:33;12.07;;;5.70;;
13607;SDS011;6875;50.852;5.672;2023-03-12T06:35:00;12.03;;;5.97;;
13607;SDS011;6875;50.852;5.672;2023-03-12T06:37:28;10.97;;;6.63;;
13607;SDS011;6875;50.852;5.672;2023-03-12T06:39:55;9.03;;;6.47;;
13607;SDS011;6875;50.852;5.672;2023-03-12T06:42:21;20.33;;;7.23;;
13607;SDS011;6875;50.852;5.672;2023-03-12T06:44:51;12.37;;;6.50;;
13607;SDS011;6875;50.852;5.672;2023-03-12T06:47:18;12.40;;;7.27;;
13607;SDS011;6875;50.852;5.672;2023-03-12T06:49:45;12.90;;;7.63;;
13607;SDS011;6875;50.852;5.672;2023-03-12T06:52:11;16.77;;;8.20;;
13607;SDS011;6875;50.852;5.672;2023-03-12T06:54:38;13.67;;;8.20;;
13607;SDS011;6875;50.852;5.672;2023-03-12T06:57:04;13.90;;;8.57;;
13607;SDS011;6875;50.852;5.672;2023-03-12T06:59:31;17.33;;;9.27;;
13607;SDS011;6875;50.852;5.672;2023-03-12T07:01:59;14.93;;;9.17;;
13607;SDS011;6875;50.852;5.672;2023-03-12T07:04:25;11.83;;;8.20;;
13607;SDS011;6875;50.852;5.672;2023-03-12T07:06:52;15.57;;;8.70;;
13607;SDS011;6875;50.852;5.672;2023-03-12T07:09:19;14.93;;;9.33;;
13607;SDS011;6875;50.852;5.672;2023-03-12T07:11:45;14.27;;;8.97;;
13607;SDS011;6875;50.852;5.672;2023-03-12T07:14:12;14.57;;;9.10;;
13607;SDS011;6875;50.852;5.672;2023-03-12T07:16:39;13.40;;;8.50;;
13607;SDS011;6875;50.852;5.672;2023-03-12T07:19:06;16.00;;;9.83;;
13607;SDS011;6875;50.852;5.672;2023-03-12T07:21:33;16.00;;;10.20;;
13607;SDS011;6875;50.852;5.672;2023-03-12T07:23:59;17.00;;;10.20;;
13607;SDS011;6875;50.852;5.672;2023-03-12T07:26:31;15.13;;;10.20;;
13607;SDS011;6875;50.852;5.672;2023-03-12T07:28:58;15.87;;;9.97;;
13607;SDS011;6875;50.852;5.672;2023-03-12T07:31:24;15.13;;;8.63;;
13607;SDS011;6875;50.852;5.672;2023-03-12T07:33:51;16.63;;;11.17;;
13607;SDS011;6875;50.852;5.672;2023-03-12T07:36:18;16.50;;;11.17;;
13607;SDS011;6875;50.852;5.672;2023-03-12T07:38:45;15.87;;;11.07;;
13607;SDS011;6875;50.852;5.672;2023-03-12T07:41:12;20.67;;;11.60;;
13607;SDS011;6875;50.852;5.672;2023-03-12T07:43:38;13.90;;;10.83;;
13607;SDS011;6875;50.852;5.672;2023-03-12T07:46:05;17.80;;;11.83;;
13607;SDS011;6875;50.852;5.672;2023-03-12T07:48:31;15.10;;;11.13;;
13607;SDS011;6875;50.852;5.672;2023-03-12T07:50:58;14.87;;;10.70;;
13607;SDS011;6875;50.852;5.672;2023-03-12T07:53:26;19.57;;;11.83;;
13607;SDS011;6875;50.852;5.672;2023-03-12T07:55:53;16.57;;;11.63;;
13607;SDS011;6875;50.852;5.672;2023-03-12T07:58:19;14.63;;;10.93;;
13607;SDS011;6875;50.852;5.672;2023-03-12T08:00:46;18.67;;;11.23;;
13607;SDS011;6875;50.852;5.672;2023-03-12T08:03:13;17.27;;;10.73;;
13607;SDS011;6875;50.852;5.672;2023-03-12T08:05:40;18.50;;;11.07;;
13607;SDS011;6875;50.852;5.672;2023-03-12T08:08:07;17.50;;;11.07;;
13607;SDS011;6875;50.852;5.672;2023-03-12T08:10:35;19.63;;;11.63;;
13607;SDS011;6875;50.852;5.672;2023-03-12T08:13:02;18.53;;;11.50;;
13607;SDS011;6875;50.852;5.672;2023-03-12T08:15:28;19.60;;;11.50;;
13607;SDS011;6875;50.852;5.672;2023-03-12T08:17:55;18.27;;;12.50;;
13607;SDS011;6875;50.852;5.672;2023-03-12T08:20:21;22.47;;;11.93;;
13607;SDS011;6875;50.852;5.672;2023-03-12T08:22:48;18.50;;;12.97;;
13607;SDS011;6875;50.852;5.672;2023-03-12T08:25:14;22.60;;;13.17;;
13607;SDS011;6875;50.852;5.672;2023-03-12T08:27:43;19.77;;;12.13;;
13607;SDS011;6875;50.852;5.672;2023-03-12T08:30:11;24.43;;;14.10;;
13607;SDS011;6875;50.852;5.672;2023-03-12T08:32:38;21.07;;;14.87;;
13607;SDS011;6875;50.852;5.672;2023-03-12T08:35:05;21.33;;;14.37;;
13607;SDS011;6875;50.852;5.672;2023-03-12T08:37:34;23.43;;;14.63;;
13607;SDS011;6875;50.852;5.672;2023-03-12T08:40:00;27.27;;;15.07;;
13607;SDS011;6875;50.852;5.672;2023-03-12T08:42:29;22.03;;;14.73;;
13607;SDS011;6875;50.852;5.672;2023-03-12T08:44:57;23.00;;;15.13;;
13607;SDS011;6875;50.852;5.672;2023-03-12T08:47:24;27.07;;;15.93;;
13607;SDS011;6875;50.852;5.672;2023-03-12T08:49:50;26.37;;;16.80;;
13607;SDS011;6875;50.852;5.672;2023-03-12T08:52:17;24.70;;;16.47;;
13607;SDS011;6875;50.852;5.672;2023-03-12T08:54:43;27.23;;;18.00;;
13607;SDS011;6875;50.852;5.672;2023-03-12T08:57:10;23.60;;;17.30;;
13607;SDS011;6875;50.852;5.672;2023-03-12T08:59:36;29.50;;;18.60;;
13607;SDS011;6875;50.852;5.672;2023-03-12T09:02:04;28.97;;;17.90;;
13607;SDS011;6875;50.852;5.672;2023-03-12T09:04:31;34.50;;;20.07;;
13607;SDS011;6875;50.852;5.672;2023-03-12T09:06:59;34.87;;;20.63;;
13607;SDS011;6875;50.852;5.672;2023-03-12T09:09:25;37.93;;;21.70;;
13607;SDS011;6875;50.852;5.672;2023-03-12T09:11:52;36.67;;;22.40;;
13607;SDS011;6875;50.852;5.672;2023-03-12T09:14:19;37.30;;;20.80;;
13607;SDS011;6875;50.852;5.672;2023-03-12T09:16:45;39.53;;;24.13;;
13607;SDS011;6875;50.852;5.672;2023-03-12T09:19:13;37.20;;;22.63;;
13607;SDS011;6875;50.852;5.672;2023-03-12T09:21:40;38.30;;;22.57;;
13607;SDS011;6875;50.852;5.672;2023-03-12T09:24:06;40.63;;;23.77;;
13607;SDS011;6875;50.852;5.672;2023-03-12T09:26:33;45.67;;;25.80;;
13607;SDS011;6875;50.852;5.672;2023-03-12T09:28:59;40.23;;;25.83;;
13607;SDS011;6875;50.852;5.672;2023-03-12T09:31:27;45.20;;;24.83;;
13607;SDS011;6875;50.852;5.672;2023-03-12T09:33:53;41.30;;;25.70;;
13607;SDS011;6875;50.852;5.672;2023-03-12T09:36:21;43.13;;;26.33;;
13607;SDS011;6875;50.852;5.672;2023-03-12T09:38:48;43.30;;;27.53;;
13607;SDS011;6875;50.852;5.672;2023-03-12T09:41:16;41.30;;;26.00;;
13607;SDS011;6875;50.852;5.672;2023-03-12T09:43:45;43.03;;;27.33;;
13607;SDS011;6875;50.852;5.672;2023-03-12T09:46:16;45.23;;;28.70;;
13607;SDS011;6875;50.852;5.672;2023-03-12T09:48:46;47.13;;;28.07;;
13607;SDS011;6875;50.852;5.672;2023-03-12T09:51:15;45.23;;;26.33;;
13607;SDS011;6875;50.852;5.672;2023-03-12T09:53:44;48.70;;;28.90;;
13607;SDS011;6875;50.852;5.672;2023-03-12T09:56:13;46.93;;;28.10;;
13607;SDS011;6875;50.852;5.672;2023-03-12T09:58:41;42.17;;;26.20;;
13607;SDS011;6875;50.852;5.672;2023-03-12T10:01:16;46.63;;;26.53;;
13607;SDS011;6875;50.852;5.672;2023-03-12T10:06:48;41.57;;;24.80;;
13607;SDS011;6875;50.852;5.672;2023-03-12T10:09:26;43.00;;;25.83;;
13607;SDS011;6875;50.852;5.672;2023-03-12T10:11:58;41.63;;;24.77;;
13607;SDS011;6875;50.852;5.672;2023-03-12T10:14:36;42.30;;;24.60;;
13607;SDS011;6875;50.852;5.672;2023-03-12T10:17:13;35.77;;;21.70;;
13607;SDS011;6875;50.852;5.672;2023-03-12T10:19:52;37.23;;;20.37;;
13607;SDS011;6875;50.852;5.672;2023-03-12T10:22:27;37.77;;;19.20;;
13607;SDS011;6875;50.852;5.672;2023-03-12T10:25:03;34.73;;;20.27;;
13607;SDS011;6875;50.852;5.672;2023-03-12T10:27:34;34.80;;;20.23;;
13607;SDS011;6875;50.852;5.672;2023-03-12T10:30:01;38.83;;;18.47;;
13607;SDS011;6875;50.852;5.672;2023-03-12T10:32:30;34.90;;;18.27;;
13607;SDS011;6875;50.852;5.672;2023-03-12T10:35:03;27.23;;;16.27;;
13607;SDS011;6875;50.852;5.672;2023-03-12T10:37:33;35.67;;;16.63;;
13607;SDS011;6875;50.852;5.672;2023-03-12T10:40:05;41.97;;;17.23;;
13607;SDS011;6875;50.852;5.672;2023-03-12T10:42:38;30.87;;;14.40;;
13607;SDS011;6875;50.852;5.672;2023-03-12T10:45:12;28.03;;;11.93;;
13607;SDS011;6875;50.852;5.672;2023-03-12T10:47:43;25.90;;;10.93;;
13607;SDS011;6875;50.852;5.672;2023-03-12T10:50:15;29.77;;;9.83;;
13607;SDS011;6875;50.852;5.672;2023-03-12T10:52:43;28.47;;;9.67;;
13607;SDS011;6875;50.852;5.672;2023-03-12T10:55:18;28.47;;;8.90;;
13607;SDS011;6875;50.852;5.672;2023-03-12T10:57:46;26.50;;;8.70;;
13607;SDS011;6875;50.852;5.672;2023-03-12T11:00:16;23.27;;;8.17;;
13607;SDS011;6875;50.852;5.672;2023-03-12T11:02:45;27.57;;;8.97;;
13607;SDS011;6875;50.852;5.672;2023-03-12T11:05:20;27.87;;;8.87;;
13607;SDS011;6875;50.852;5.672;2023-03-12T11:07:48;22.20;;;6.40;;
13607;SDS011;6875;50.852;5.672;2023-03-12T11:10:20;27.03;;;7.20;;
13607;SDS011;6875;50.852;5.672;2023-03-12T11:12:53;26.57;;;7.13;;
13607;SDS011;6875;50.852;5.672;2023-03-12T11:15:24;22.80;;;7.30;;
13607;SDS011;6875;50.852;5.672;2023-03-12T11:18:05;27.30;;;7.47;;
13607;SDS011;6875;50.852;5.672;2023-03-12T11:20:50;29.73;;;8.47;;
13607;SDS011;6875;50.852;5.672;2023-03-12T11:23:20;23.93;;;8.80;;
13607;SDS011;6875;50.852;5.672;2023-03-12T11:25:54;28.03;;;8.23;;
13607;SDS011;6875;50.852;5.672;2023-03-12T11:28:23;31.70;;;9.20;;
13607;SDS011;6875;50.852;5.672;2023-03-12T11:30:53;31.83;;;10.07;;
13607;SDS011;6875;50.852;5.672;2023-03-12T11:33:22;29.70;;;7.73;;
13607;SDS011;6875;50.852;5.672;2023-03-12T11:35:51;21.37;;;9.20;;
13607;SDS011;6875;50.852;5.672;2023-03-12T11:38:30;34.03;;;9.17;;
13607;SDS011;6875;50.852;5.672;2023-03-12T11:41:02;37.27;;;10.03;;
13607;SDS011;6875;50.852;5.672;2023-03-12T11:43:44;30.03;;;9.77;;
13607;SDS011;6875;50.852;5.672;2023-03-12T11:46:20;25.07;;;8.13;;
13607;SDS011;6875;50.852;5.672;2023-03-12T11:48:55;29.37;;;8.20;;
13607;SDS011;6875;50.852;5.672;2023-03-12T11:51:29;29.13;;;7.80;;
13607;SDS011;6875;50.852;5.672;2023-03-12T11:54:07;31.17;;;8.80;;
13607;SDS011;6875;50.852;5.672;2023-03-12T11:56:56;28.83;;;9.27;;
13607;SDS011;6875;50.852;5.672;2023-03-12T11:59:29;31.60;;;8.77;;
13607;SDS011;6875;50.852;5.672;2023-03-12T12:02:10;32.00;;;8.43;;
13607;SDS011;6875;50.852;5.672;2023-03-12T12:04:45;26.70;;;7.27;;
13607;SDS011;6875;50.852;5.672;2023-03-12T12:07:21;32.53;;;7.23;;
13607;SDS011;6875;50.852;5.672;2023-03-12T12:10:00;27.47;;;7.13;;
13607;SDS011;6875;50.852;5.672;2023-03-12T12:12:35;24.40;;;6.53;;
13607;SDS011;6875;50.852;5.672;2023-03-12T12:15:12;25.60;;;6.43;;
13607;SDS011;6875;50.852;5.672;2023-03-12T12:17:46;28.33;;;6.63;;
13607;SDS011;6875;50.852;5.672;2023-03-12T12:20:20;28.97;;;5.77;;
13607;SDS011;6875;50.852;5.672;2023-03-12T12:22:57;35.10;;;6.93;;
13607;SDS011;6875;50.852;5.672;2023-03-12T12:25:38;20.23;;;5.10;;
13607;SDS011;6875;50.852;5.672;2023-03-12T12:31:00;23.70;;;6.00;;
13607;SDS011;6875;50.852;5.672;2023-03-12T12:33:37;28.73;;;6.27;;
13607;SDS011;6875;50.852;5.672;2023-03-12T12:36:10;21.10;;;6.30;;
13607;SDS011;6875;50.852;5.672;2023-03-12T12:38:39;24.60;;;6.63;;
13607;SDS011;6875;50.852;5.672;2023-03-12T12:41:08;16.73;;;5.23;;
13607;SDS011;6875;50.852;5.672;2023-03-12T12:43:38;21.33;;;6.37;;
13607;SDS011;6875;50.852;5.672;2023-03-12T12:46:07;25.80;;;6.73;;
13607;SDS011;6875;50.852;5.672;2023-03-12T12:48:36;21.83;;;7.57;;
13607;SDS011;6875;50.852;5.672;2023-03-12T12:51:05;24.30;;;5.77;;
13607;SDS011;6875;50.852;5.672;2023-03-12T12:53:35;26.07;;;6.13;;
13607;SDS011;6875;50.852;5.672;2023-03-12T12:56:08;21.87;;;6.77;;
13607;SDS011;6875;50.852;5.672;2023-03-12T12:58:44;21.90;;;5.47;;
13607;SDS011;6875;50.852;5.672;2023-03-12T13:01:22;28.53;;;6.70;;
13607;SDS011;6875;50.852;5.672;2023-03-12T13:03:49;24.27;;;5.20;;
13607;SDS011;6875;50.852;5.672;2023-03-12T13:06:16;25.93;;;5.77;;
13607;SDS011;6875;50.852;5.672;2023-03-12T13:08:59;26.53;;;6.27;;
13607;SDS011;6875;50.852;5.672;2023-03-12T13:11:28;22.73;;;6.40;;
13607;SDS011;6875;50.852;5.672;2023-03-12T13:14:17;30.93;;;6.27;;
13607;SDS011;6875;50.852;5.672;2023-03-12T13:16:45;23.80;;;5.37;;
13607;SDS011;6875;50.852;5.672;2023-03-12T13:19:23;26.80;;;6.77;;
13607;SDS011;6875;50.852;5.672;2023-03-12T13:21:54;27.80;;;5.73;;
13607;SDS011;6875;50.852;5.672;2023-03-12T13:24:30;21.50;;;5.03;;
13607;SDS011;6875;50.852;5.672;2023-03-12T13:26:59;25.70;;;5.90;;
13607;SDS011;6875;50.852;5.672;2023-03-12T13:29:39;21.63;;;5.63;;
13607;SDS011;6875;50.852;5.672;2023-03-12T13:32:35;27.70;;;4.60;;
13607;SDS011;6875;50.852;5.672;2023-03-12T13:35:06;27.53;;;6.37;;
13607;SDS011;6875;50.852;5.672;2023-03-12T13:37:57;16.50;;;3.80;;
13607;SDS011;6875;50.852;5.672;2023-03-12T13:40:35;17.30;;;3.93;;
13607;SDS011;6875;50.852;5.672;2023-03-12T13:43:29;20.40;;;4.33;;
13607;SDS011;6875;50.852;5.672;2023-03-12T13:46:20;15.43;;;3.80;;
13607;SDS011;6875;50.852;5.672;2023-03-12T13:49:03;18.67;;;4.33;;
13607;SDS011;6875;50.852;5.672;2023-03-12T13:51:58;18.00;;;4.20;;
13607;SDS011;6875;50.852;5.672;2023-03-12T13:54:28;19.77;;;4.73;;
13607;SDS011;6875;50.852;5.672;2023-03-12T13:56:58;23.07;;;5.47;;
13607;SDS011;6875;50.852;5.672;2023-03-12T13:59:26;21.83;;;4.67;;
13607;SDS011;6875;50.852;5.672;2023-03-12T14:01:56;17.03;;;3.97;;
13607;SDS011;6875;50.852;5.672;2023-03-12T14:04:28;20.57;;;4.60;;
13607;SDS011;6875;50.852;5.672;2023-03-12T14:07:02;24.60;;;5.13;;
13607;SDS011;6875;50.852;5.672;2023-03-12T14:09:38;18.00;;;4.60;;
13607;SDS011;6875;50.852;5.672;2023-03-12T14:12:13;23.13;;;5.33;;
13607;SDS011;6875;50.852;5.672;2023-03-12T14:14:55;22.47;;;5.30;;
13607;SDS011;6875;50.852;5.672;2023-03-12T14:17:29;25.20;;;5.63;;
13607;SDS011;6875;50.852;5.672;2023-03-12T14:19:58;21.43;;;4.00;;
13607;SDS011;6875;50.852;5.672;2023-03-12T14:22:30;26.10;;;5.50;;
13607;SDS011;6875;50.852;5.672;2023-03-12T14:24:58;23.10;;;5.13;;
13607;SDS011;6875;50.852;5.672;2023-03-12T14:27:28;20.40;;;5.20;;
13607;SDS011;6875;50.852;5.672;2023-03-12T14:29:57;25.27;;;6.00;;
13607;SDS011;6875;50.852;5.672;2023-03-12T14:32:30;28.13;;;5.53;;
13607;SDS011;6875;50.852;5.672;2023-03-12T14:34:57;25.33;;;5.50;;
13607;SDS011;6875;50.852;5.672;2023-03-12T14:37:31;20.07;;;5.47;;
13607;SDS011;6875;50.852;5.672;2023-03-12T14:40:02;22.93;;;5.70;;
13607;SDS011;6875;50.852;5.672;2023-03-12T14:42:33;28.53;;;6.77;;
13607;SDS011;6875;50.852;5.672;2023-03-12T14:45:01;22.70;;;5.23;;
13607;SDS011;6875;50.852;5.672;2023-03-12T14:47:39;19.83;;;4.73;;
13607;SDS011;6875;50.852;5.672;2023-03-12T14:50:14;25.40;;;6.03;;
13607;SDS011;6875;50.852;5.672;2023-03-12T14:52:42;24.30;;;6.07;;
13607;SDS011;6875;50.852;5.672;2023-03-12T14:55:11;30.77;;;6.43;;
13607;SDS011;6875;50.852;5.672;2023-03-12T14:57:38;26.23;;;5.50;;
13607;SDS011;6875;50.852;5.672;2023-03-12T15:00:05;22.27;;;5.40;;
13607;SDS011;6875;50.852;5.672;2023-03-12T15:02:41;20.87;;;5.23;;
13607;SDS011;6875;50.852;5.672;2023-03-12T15:05:13;26.67;;;5.83;;
13607;SDS011;6875;50.852;5.672;2023-03-12T15:07:41;26.43;;;6.47;;
13607;SDS011;6875;50.852;5.672;2023-03-12T15:10:16;25.40;;;5.50;;